Time;durP1;ratioP1;P1;durP2;ratioP2;P2;SDS_P1;SDS_P2;PMS_P1;PMS_P2;Temp;Humidity;BMP_temperature;BMP_pressure;BME280_temperature;BME280_humidity;BME280_pressure;Samples;Min_cycle;Max_cycle;Signal;HPM_P1;HPM_P2
2023/08/08 00:00:35;;;;;;;8.07;2.65;;;15.10;99.90;;;;;;5042873;28;20116;-85
2023/08/08 00:03:01;;;;;;;6.05;2.35;;;15.00;99.90;;;;;;5060772;28;20058;-85
2023/08/08 00:05:27;;;;;;;7.03;2.35;;;15.00;99.90;;;;;;5070261;28;20262;-85
2023/08/08 00:07:53;;;;;;;7.53;2.40;;;14.90;99.90;;;;;;5074955;28;20052;-85
2023/08/08 00:10:18;;;;;;;10.57;2.58;;;14.90;99.90;;;;;;5059298;28;20047;-86
2023/08/08 00:12:44;;;;;;;6.28;2.40;;;14.90;99.90;;;;;;5080511;28;20040;-86
2023/08/08 00:15:10;;;;;;;6.65;2.50;;;14.80;99.90;;;;;;5078959;28;20886;-85
2023/08/08 00:17:35;;;;;;;5.22;2.38;;;14.80;99.90;;;;;;5050145;28;20040;-86
2023/08/08 00:20:02;;;;;;;7.43;2.45;;;14.80;99.90;;;;;;5063067;28;20234;-86
2023/08/08 00:22:28;;;;;;;13.13;2.80;;;14.60;99.90;;;;;;5080944;28;20052;-86
2023/08/08 00:24:53;;;;;;;7.07;2.95;;;14.60;99.90;;;;;;5066020;28;20040;-85
2023/08/08 00:27:20;;;;;;;6.50;2.92;;;14.60;99.90;;;;;;5047767;28;20488;-86
2023/08/08 00:29:45;;;;;;;7.22;2.47;;;14.50;99.90;;;;;;5049197;28;20487;-86
2023/08/08 00:32:11;;;;;;;10.93;3.40;;;14.50;99.90;;;;;;5048326;28;20046;-86
2023/08/08 00:34:37;;;;;;;7.93;2.90;;;14.50;99.90;;;;;;5065556;28;20033;-85
2023/08/08 00:37:03;;;;;;;7.60;2.75;;;14.40;99.90;;;;;;5065276;28;20150;-86
2023/08/08 00:39:28;;;;;;;9.15;3.03;;;14.30;99.90;;;;;;5048513;28;20077;-86
2023/08/08 00:41:54;;;;;;;8.70;3.05;;;14.40;99.90;;;;;;5026351;28;20041;-86
2023/08/08 00:44:20;;;;;;;9.35;3.15;;;14.30;99.90;;;;;;5064254;28;20090;-86
2023/08/08 00:46:45;;;;;;;11.75;3.40;;;14.30;99.90;;;;;;5043220;28;20044;-86
2023/08/08 00:49:11;;;;;;;8.43;3.08;;;14.40;99.90;;;;;;5064457;28;20036;-86
2023/08/08 00:51:38;;;;;;;7.18;2.70;;;14.30;99.90;;;;;;5065752;28;20048;-86
2023/08/08 00:54:04;;;;;;;7.57;2.92;;;14.30;99.90;;;;;;5047384;28;20405;-86
2023/08/08 00:56:31;;;;;;;8.93;3.28;;;14.30;99.90;;;;;;5066714;28;20040;-87
2023/08/08 00:58:56;;;;;;;8.80;3.13;;;14.30;99.90;;;;;;5066170;28;20273;-86
2023/08/08 01:01:22;;;;;;;7.78;2.92;;;14.20;99.90;;;;;;5047083;28;20295;-86
2023/08/08 01:03:50;;;;;;;7.07;3.03;;;14.10;99.90;;;;;;5047711;28;20491;-87
2023/08/08 01:06:38;;;;;;;8.13;2.70;;;14.10;99.90;;;;;;5045351;28;20057;-87
2023/08/08 01:09:15;;;;;;;11.23;3.53;;;14.20;99.90;;;;;;5060069;28;20097;-86
2023/08/08 01:11:42;;;;;;;9.30;2.95;;;14.10;99.90;;;;;;5063460;28;20651;-86
2023/08/08 01:14:09;;;;;;;8.02;3.10;;;14.10;99.90;;;;;;5047447;28;21002;-85
2023/08/08 01:16:35;;;;;;;7.18;3.28;;;14.20;99.90;;;;;;5044875;28;20056;-86
2023/08/08 01:19:01;;;;;;;5.22;2.47;;;14.20;99.90;;;;;;5042902;28;20049;-86
2023/08/08 01:21:29;;;;;;;6.80;2.40;;;14.20;99.90;;;;;;5046230;28;20392;-86
2023/08/08 01:24:12;;;;;;;6.78;2.40;;;14.20;99.90;;;;;;5028786;28;20109;-87
2023/08/08 01:26:38;;;;;;;9.73;2.80;;;14.20;99.90;;;;;;5058147;28;20041;-85
2023/08/08 01:29:04;;;;;;;8.65;2.65;;;14.20;99.90;;;;;;5064614;28;20097;-86
2023/08/08 01:31:30;;;;;;;7.80;2.97;;;14.20;99.90;;;;;;5064318;28;20036;-85
2023/08/08 01:33:55;;;;;;;10.57;2.70;;;14.20;99.90;;;;;;5028619;28;20044;-86
2023/08/08 01:36:28;;;;;;;6.65;2.63;;;14.20;99.90;;;;;;5041895;28;20036;-86
2023/08/08 01:38:59;;;;;;;6.03;2.83;;;14.10;99.90;;;;;;5060741;28;20207;-86
2023/08/08 01:41:26;;;;;;;6.90;2.50;;;14.10;99.90;;;;;;5063244;28;20563;-86
2023/08/08 01:43:53;;;;;;;8.27;2.63;;;14.10;99.90;;;;;;5062406;28;20040;-85
2023/08/08 01:46:19;;;;;;;7.65;2.55;;;14.10;99.90;;;;;;5043987;28;20077;-86
2023/08/08 01:48:46;;;;;;;6.72;2.60;;;14.20;99.90;;;;;;5063159;28;20274;-86
2023/08/08 01:51:12;;;;;;;9.77;2.53;;;14.20;99.90;;;;;;5066071;28;20209;-86
2023/08/08 01:53:38;;;;;;;4.47;1.80;;;14.20;99.90;;;;;;5060141;28;20303;-86
2023/08/08 01:56:03;;;;;;;7.65;2.10;;;14.20;99.90;;;;;;5061962;28;20470;-85
2023/08/08 01:58:29;;;;;;;7.47;2.00;;;14.20;99.90;;;;;;5060311;28;20044;-85
2023/08/08 02:00:55;;;;;;;6.80;2.35;;;14.20;99.90;;;;;;5041663;28;20488;-86
2023/08/08 02:03:20;;;;;;;5.75;2.10;;;14.30;99.90;;;;;;5043047;28;20417;-85
2023/08/08 02:05:46;;;;;;;5.55;2.10;;;14.30;99.90;;;;;;5062947;28;20037;-87
2023/08/08 02:08:12;;;;;;;7.07;1.80;;;14.30;99.90;;;;;;5027312;28;20307;-85
2023/08/08 02:10:38;;;;;;;5.90;2.25;;;14.40;99.90;;;;;;5063400;28;22424;-86
2023/08/08 02:13:04;;;;;;;6.40;2.00;;;14.40;99.90;;;;;;5059651;28;20040;-86
2023/08/08 02:15:30;;;;;;;6.65;2.03;;;14.40;99.90;;;;;;5044478;28;20048;-85
2023/08/08 02:17:55;;;;;;;8.45;2.13;;;14.50;99.90;;;;;;5028204;28;20056;-85
2023/08/08 02:20:21;;;;;;;6.63;2.05;;;14.50;99.90;;;;;;5058743;28;20068;-85
2023/08/08 02:22:47;;;;;;;11.88;2.95;;;14.50;99.90;;;;;;5057584;28;20041;-85
2023/08/08 02:25:12;;;;;;;10.07;2.05;;;14.50;99.90;;;;;;5061826;28;20087;-84
2023/08/08 02:27:38;;;;;;;7.18;2.00;;;14.60;99.90;;;;;;5058168;28;20044;-85
2023/08/08 02:30:04;;;;;;;6.43;2.13;;;14.60;99.90;;;;;;5043220;28;20083;-84
2023/08/08 02:32:30;;;;;;;6.53;1.90;;;14.60;99.90;;;;;;5063208;28;20491;-84
2023/08/08 02:34:55;;;;;;;10.27;2.75;;;14.60;99.90;;;;;;5061538;28;20056;-84
2023/08/08 02:37:21;;;;;;;5.90;2.20;;;14.60;99.90;;;;;;5057551;28;20182;-85
2023/08/08 02:39:47;;;;;;;10.07;2.13;;;14.60;99.90;;;;;;5060995;28;20044;-85
2023/08/08 02:42:12;;;;;;;8.27;2.22;;;14.60;99.90;;;;;;5040992;28;20503;-84
2023/08/08 02:44:38;;;;;;;4.97;1.70;;;14.60;99.90;;;;;;5062711;28;20094;-85
2023/08/08 02:47:04;;;;;;;6.45;2.17;;;14.60;99.90;;;;;;5038484;28;20052;-85
2023/08/08 02:49:29;;;;;;;5.93;2.00;;;14.50;99.90;;;;;;5060811;28;20040;-85
2023/08/08 02:51:55;;;;;;;7.28;2.15;;;14.40;99.90;;;;;;5044093;28;20063;-85
2023/08/08 02:54:21;;;;;;;9.18;2.17;;;14.40;99.90;;;;;;5040759;28;20098;-86
2023/08/08 02:56:46;;;;;;;7.63;2.47;;;14.40;99.90;;;;;;5043840;28;20052;-85
2023/08/08 02:59:12;;;;;;;6.18;1.80;;;14.30;99.90;;;;;;5060609;28;20048;-85
2023/08/08 03:01:39;;;;;;;6.68;1.95;;;14.30;99.90;;;;;;5059712;28;20052;-85
2023/08/08 03:04:05;;;;;;;6.90;2.03;;;14.30;99.90;;;;;;5060073;28;20503;-85
2023/08/08 03:06:31;;;;;;;4.00;1.83;;;14.30;99.90;;;;;;5063803;28;20045;-85
2023/08/08 03:08:57;;;;;;;8.98;1.85;;;14.30;99.90;;;;;;5031400;28;20523;-85
2023/08/08 03:11:22;;;;;;;9.43;2.17;;;14.30;99.90;;;;;;5066175;28;20180;-84
2023/08/08 03:13:48;;;;;;;10.10;2.38;;;14.20;99.90;;;;;;5033516;28;20041;-85
2023/08/08 03:16:13;;;;;;;11.73;2.78;;;14.20;99.90;;;;;;5046397;28;20032;-84
2023/08/08 03:18:39;;;;;;;15.35;3.78;;;14.20;99.90;;;;;;5047314;28;20052;-85
2023/08/08 03:21:05;;;;;;;6.03;1.98;;;14.20;99.90;;;;;;5070202;28;20036;-85
2023/08/08 03:23:31;;;;;;;9.30;1.88;;;14.20;99.90;;;;;;5064405;28;20075;-85
2023/08/08 03:25:56;;;;;;;9.90;3.13;;;14.30;99.90;;;;;;5063168;28;20238;-85
2023/08/08 03:28:22;;;;;;;9.30;2.17;;;14.30;99.90;;;;;;5065869;28;20040;-85
2023/08/08 03:30:48;;;;;;;6.85;1.90;;;14.30;99.90;;;;;;5066085;28;20507;-85
2023/08/08 03:33:13;;;;;;;5.95;1.77;;;14.30;99.90;;;;;;5043461;28;20048;-85
2023/08/08 03:35:39;;;;;;;6.80;2.20;;;14.40;99.90;;;;;;5061112;28;20067;-85
2023/08/08 03:38:05;;;;;;;4.97;1.67;;;14.30;99.90;;;;;;5062113;28;20041;-85
2023/08/08 03:40:31;;;;;;;4.75;1.58;;;14.40;99.90;;;;;;5066812;28;20040;-85
2023/08/08 03:42:56;;;;;;;5.82;1.90;;;14.40;99.90;;;;;;5064600;28;20130;-86
2023/08/08 03:45:22;;;;;;;5.90;1.73;;;14.30;99.90;;;;;;5045000;28;20052;-86
2023/08/08 03:47:48;;;;;;;4.25;1.50;;;14.30;99.90;;;;;;5059555;28;20044;-86
2023/08/08 03:50:13;;;;;;;5.63;1.60;;;14.30;99.90;;;;;;5044121;28;20068;-84
2023/08/08 03:52:39;;;;;;;10.45;2.20;;;14.20;99.90;;;;;;5048009;28;20507;-86
2023/08/08 03:55:05;;;;;;;7.03;1.40;;;14.20;99.90;;;;;;5063085;28;20052;-85
2023/08/08 03:57:31;;;;;;;8.73;1.50;;;14.10;99.90;;;;;;5044889;28;20395;-86
2023/08/08 03:59:57;;;;;;;8.23;1.73;;;14.10;99.90;;;;;;5066243;28;20119;-85
2023/08/08 04:02:22;;;;;;;7.15;1.48;;;14.10;99.90;;;;;;5060124;28;20041;-84
2023/08/08 04:04:48;;;;;;;8.43;2.10;;;14.10;99.90;;;;;;5059800;28;20461;-85
2023/08/08 04:07:14;;;;;;;12.68;1.90;;;14.00;99.90;;;;;;5064696;28;20049;-84
2023/08/08 04:09:40;;;;;;;5.07;1.40;;;14.00;99.90;;;;;;5033085;28;20045;-86
2023/08/08 04:12:05;;;;;;;4.50;1.65;;;14.00;99.90;;;;;;5064482;28;20048;-85
2023/08/08 04:14:31;;;;;;;5.88;1.33;;;14.00;99.90;;;;;;5046869;28;20041;-86
2023/08/08 04:16:57;;;;;;;3.45;0.98;;;14.00;99.90;;;;;;5063210;28;20068;-86
2023/08/08 04:19:23;;;;;;;7.07;1.25;;;13.90;99.90;;;;;;5061778;28;20033;-85
2023/08/08 04:21:48;;;;;;;8.48;1.80;;;13.90;99.90;;;;;;5045509;28;20328;-85
2023/08/08 04:24:14;;;;;;;4.15;1.27;;;13.80;99.90;;;;;;5061347;28;20048;-86
2023/08/08 04:26:40;;;;;;;3.97;1.20;;;13.90;99.90;;;;;;5047372;28;20045;-84
2023/08/08 04:29:06;;;;;;;5.43;1.33;;;13.90;99.90;;;;;;5068518;28;20063;-86
2023/08/08 04:31:31;;;;;;;7.00;1.50;;;13.90;99.90;;;;;;5045944;28;20507;-86
2023/08/08 04:34:00;;;;;;;7.78;1.58;;;14.00;99.90;;;;;;5044299;28;20053;-86
2023/08/08 04:36:27;;;;;;;5.40;2.00;;;14.00;99.90;;;;;;5047678;28;20044;-85
2023/08/08 04:38:53;;;;;;;9.05;1.73;;;13.90;99.90;;;;;;5062126;28;20074;-85
2023/08/08 04:41:18;;;;;;;5.68;1.60;;;14.00;99.90;;;;;;5040769;28;20137;-85
2023/08/08 04:43:44;;;;;;;7.20;1.67;;;14.00;99.90;;;;;;5040427;28;20082;-86
2023/08/08 04:46:10;;;;;;;7.68;1.70;;;14.00;99.90;;;;;;5053743;28;20044;-84
2023/08/08 04:48:37;;;;;;;11.15;1.90;;;13.90;99.90;;;;;;5041732;28;20043;-85
2023/08/08 04:51:04;;;;;;;5.47;1.50;;;13.90;99.90;;;;;;5044687;28;20256;-85
2023/08/08 04:53:30;;;;;;;9.30;1.92;;;14.00;99.90;;;;;;5055778;28;20049;-85
2023/08/08 04:55:56;;;;;;;5.65;1.80;;;14.00;99.90;;;;;;5075096;28;20182;-85
2023/08/08 04:58:21;;;;;;;7.55;1.85;;;14.10;99.90;;;;;;5061574;28;20059;-84
2023/08/08 05:00:47;;;;;;;9.40;1.90;;;14.10;99.90;;;;;;5061268;28;20043;-84
2023/08/08 05:03:13;;;;;;;7.05;1.70;;;14.20;99.90;;;;;;5064956;28;20044;-85
2023/08/08 05:05:38;;;;;;;9.27;1.67;;;14.20;99.90;;;;;;5067269;28;20450;-85
2023/08/08 05:08:04;;;;;;;12.77;2.47;;;14.30;99.90;;;;;;5061675;28;20032;-83
2023/08/08 05:10:31;;;;;;;6.78;1.83;;;14.40;99.90;;;;;;5049181;28;20103;-86
2023/08/08 05:12:57;;;;;;;8.35;1.60;;;14.50;99.90;;;;;;5033839;28;20048;-86
2023/08/08 05:15:23;;;;;;;5.90;1.50;;;14.50;99.90;;;;;;5045197;28;20064;-85
2023/08/08 05:17:48;;;;;;;6.30;1.73;;;14.60;99.90;;;;;;5066804;28;20059;-85
2023/08/08 05:20:15;;;;;;;9.52;1.70;;;14.70;99.90;;;;;;5031689;28;20060;-86
2023/08/08 05:22:40;;;;;;;7.22;2.15;;;14.70;99.90;;;;;;5066000;28;20098;-86
2023/08/08 05:25:06;;;;;;;9.43;1.65;;;14.80;99.90;;;;;;5068995;28;20037;-85
2023/08/08 05:27:32;;;;;;;6.80;1.60;;;14.80;99.90;;;;;;5045831;28;20052;-83
2023/08/08 05:29:58;;;;;;;7.28;1.60;;;14.90;99.90;;;;;;5049245;28;20048;-82
2023/08/08 05:32:24;;;;;;;6.20;1.77;;;15.00;99.90;;;;;;5043996;28;20381;-82
2023/08/08 05:34:51;;;;;;;10.20;1.73;;;15.00;99.90;;;;;;5065142;28;20082;-82
2023/08/08 05:37:17;;;;;;;9.73;1.83;;;15.10;99.90;;;;;;5065641;28;20250;-82
2023/08/08 05:39:43;;;;;;;6.72;1.67;;;15.20;99.90;;;;;;5049611;28;20047;-79
2023/08/08 05:42:08;;;;;;;6.97;1.20;;;15.20;99.90;;;;;;5048437;28;20463;-82
2023/08/08 05:44:34;;;;;;;8.40;1.73;;;15.30;99.90;;;;;;5043329;28;20052;-82
2023/08/08 05:47:00;;;;;;;8.65;1.60;;;15.40;99.90;;;;;;5065050;28;20060;-83
2023/08/08 05:49:25;;;;;;;8.38;1.42;;;15.50;99.90;;;;;;5068350;28;20078;-83
2023/08/08 05:51:51;;;;;;;10.13;2.10;;;15.60;99.90;;;;;;5066911;28;20044;-82
2023/08/08 05:54:16;;;;;;;8.10;1.75;;;15.70;99.90;;;;;;5049021;28;20098;-83
2023/08/08 05:56:42;;;;;;;7.03;1.65;;;15.70;99.90;;;;;;5041875;28;20619;-83
2023/08/08 05:59:08;;;;;;;4.28;1.35;;;15.80;99.90;;;;;;5074799;28;20547;-84
2023/08/08 06:01:34;;;;;;;6.70;1.60;;;15.90;99.90;;;;;;5064759;28;20454;-83
2023/08/08 06:04:00;;;;;;;6.97;1.52;;;16.00;99.90;;;;;;5063881;28;20055;-82
2023/08/08 06:06:26;;;;;;;5.38;1.58;;;16.10;99.90;;;;;;5063249;28;20447;-82
2023/08/08 06:08:52;;;;;;;6.68;1.70;;;16.20;99.90;;;;;;5046866;28;20435;-81
2023/08/08 06:11:18;;;;;;;7.38;1.63;;;16.30;99.90;;;;;;5047099;28;20036;-83
2023/08/08 06:13:44;;;;;;;8.52;1.60;;;16.30;99.90;;;;;;5030064;28;20192;-81
2023/08/08 06:16:10;;;;;;;6.78;1.73;;;16.40;99.90;;;;;;5045861;28;20044;-83
2023/08/08 06:18:36;;;;;;;6.75;1.90;;;16.50;99.90;;;;;;5066249;28;20048;-83
2023/08/08 06:21:02;;;;;;;9.65;1.90;;;16.50;99.90;;;;;;5067539;28;20033;-82
2023/08/08 06:23:27;;;;;;;7.38;1.50;;;16.60;99.90;;;;;;5030518;28;20032;-82
2023/08/08 06:25:53;;;;;;;7.15;2.03;;;16.60;99.90;;;;;;5061318;28;20033;-81
2023/08/08 06:28:19;;;;;;;3.92;1.27;;;16.70;99.90;;;;;;5045445;28;20058;-82
2023/08/08 06:30:44;;;;;;;7.53;1.50;;;16.80;99.90;;;;;;5045836;28;20403;-82
2023/08/08 06:33:10;;;;;;;8.75;1.75;;;16.80;99.90;;;;;;5064179;28;20394;-85
2023/08/08 06:35:36;;;;;;;4.95;1.65;;;17.00;99.90;;;;;;5062867;28;20029;-84
2023/08/08 06:38:02;;;;;;;12.35;2.35;;;17.00;99.90;;;;;;5065989;28;20412;-84
2023/08/08 06:40:28;;;;;;;9.18;2.08;;;17.20;99.90;;;;;;5056784;28;20044;-85
2023/08/08 06:42:55;;;;;;;6.18;2.00;;;17.20;99.90;;;;;;5046717;28;20037;-85
2023/08/08 06:45:21;;;;;;;6.72;1.50;;;17.10;99.90;;;;;;5065101;28;20460;-84
2023/08/08 06:47:46;;;;;;;10.80;2.53;;;17.00;99.90;;;;;;5030495;28;20123;-85
2023/08/08 06:50:12;;;;;;;10.90;2.55;;;17.00;99.90;;;;;;5043727;28;20439;-84
2023/08/08 06:52:38;;;;;;;7.70;1.58;;;16.90;99.90;;;;;;5047147;28;20083;-84
2023/08/08 06:55:05;;;;;;;11.98;2.15;;;16.90;99.90;;;;;;5042993;28;20546;-84
2023/08/08 06:57:33;;;;;;;7.43;1.67;;;16.80;99.90;;;;;;5046502;28;20059;-84
2023/08/08 06:59:59;;;;;;;5.15;1.70;;;16.80;99.90;;;;;;5028727;28;20036;-85
2023/08/08 07:02:25;;;;;;;7.35;1.52;;;16.80;99.90;;;;;;5062390;28;20384;-84
2023/08/08 07:04:51;;;;;;;7.38;1.42;;;16.80;99.90;;;;;;5048564;28;20114;-83
2023/08/08 07:07:17;;;;;;;7.25;2.00;;;16.80;99.90;;;;;;5030384;28;20028;-83
2023/08/08 07:09:43;;;;;;;9.63;1.60;;;16.80;99.90;;;;;;5061687;28;20052;-83
2023/08/08 07:12:09;;;;;;;9.13;1.85;;;16.80;99.90;;;;;;5030896;28;20337;-84
2023/08/08 07:14:34;;;;;;;8.63;1.95;;;16.80;99.90;;;;;;5044849;28;20626;-84
2023/08/08 07:17:02;;;;;;;7.80;1.58;;;16.80;99.90;;;;;;5042151;28;20048;-85
2023/08/08 07:19:28;;;;;;;7.30;1.75;;;16.80;99.90;;;;;;5025936;28;20163;-85
2023/08/08 07:21:54;;;;;;;10.55;1.73;;;16.80;99.90;;;;;;5045905;28;20239;-84
2023/08/08 07:24:20;;;;;;;7.25;2.08;;;16.80;99.90;;;;;;5044742;28;20063;-85
2023/08/08 07:26:46;;;;;;;9.77;1.95;;;16.80;99.90;;;;;;5040178;28;20290;-84
2023/08/08 07:29:11;;;;;;;9.00;2.03;;;16.80;99.90;;;;;;5042738;28;20339;-85
2023/08/08 07:31:37;;;;;;;11.10;2.30;;;16.90;99.90;;;;;;5063251;28;20037;-84
2023/08/08 07:34:03;;;;;;;8.60;1.95;;;17.00;99.90;;;;;;5029812;28;20036;-86
2023/08/08 07:36:28;;;;;;;11.25;1.77;;;17.00;99.90;;;;;;5044562;28;20059;-83
2023/08/08 07:38:59;;;;;;;9.20;1.85;;;17.00;99.90;;;;;;5047325;28;20455;-86
2023/08/08 07:41:26;;;;;;;7.32;1.67;;;17.00;99.90;;;;;;5047187;28;20045;-86
2023/08/08 07:43:52;;;;;;;8.52;2.30;;;17.00;99.90;;;;;;5048294;28;20063;-87
2023/08/08 07:46:17;;;;;;;12.18;1.83;;;17.00;99.90;;;;;;5064759;28;20570;-87
2023/08/08 07:48:43;;;;;;;9.65;2.45;;;17.00;99.90;;;;;;5061285;28;20040;-86
2023/08/08 07:51:09;;;;;;;10.93;1.95;;;16.90;99.90;;;;;;5063608;28;20048;-87
2023/08/08 07:53:34;;;;;;;6.47;1.92;;;16.90;99.90;;;;;;5062829;28;20025;-85
2023/08/08 07:56:00;;;;;;;7.22;1.75;;;16.90;99.90;;;;;;5069566;28;20043;-85
2023/08/08 07:58:27;;;;;;;6.32;1.58;;;16.90;99.90;;;;;;5067617;28;20037;-86
2023/08/08 08:00:53;;;;;;;10.43;1.70;;;16.70;99.90;;;;;;5064991;28;20065;-87
2023/08/08 08:03:20;;;;;;;13.43;2.38;;;16.50;99.90;;;;;;5064436;28;20041;-85
2023/08/08 08:05:45;;;;;;;6.43;1.70;;;16.30;99.90;;;;;;5064011;28;20041;-85
2023/08/08 08:08:11;;;;;;;12.65;2.03;;;16.20;99.90;;;;;;5065770;28;20040;-85
2023/08/08 08:10:37;;;;;;;7.95;1.55;;;16.20;99.90;;;;;;5060228;28;20178;-85
2023/08/08 08:13:02;;;;;;;7.50;2.35;;;16.20;99.90;;;;;;5047796;28;20087;-85
2023/08/08 08:15:28;;;;;;;8.88;2.08;;;16.30;99.90;;;;;;5049110;28;20033;-86
2023/08/08 08:17:54;;;;;;;6.68;1.60;;;16.30;99.90;;;;;;5056978;28;20033;-86
2023/08/08 08:20:20;;;;;;;7.50;1.55;;;16.40;99.90;;;;;;5055023;28;20396;-86
2023/08/08 08:22:46;;;;;;;11.23;1.95;;;16.50;99.90;;;;;;5049742;28;20094;-86
2023/08/08 08:25:12;;;;;;;6.30;1.40;;;16.60;99.90;;;;;;5047112;28;20040;-86
2023/08/08 08:27:38;;;;;;;4.25;1.30;;;16.80;99.90;;;;;;5048862;28;20182;-86
2023/08/08 08:30:06;;;;;;;6.30;1.63;;;16.80;99.90;;;;;;5048241;28;20119;-86
2023/08/08 08:32:33;;;;;;;8.32;1.42;;;16.90;99.90;;;;;;5047428;28;20040;-86
2023/08/08 08:35:01;;;;;;;7.07;1.50;;;16.90;99.90;;;;;;5044197;28;20037;-86
2023/08/08 08:37:26;;;;;;;7.90;1.73;;;17.20;99.90;;;;;;5030410;28;20490;-85
2023/08/08 08:39:52;;;;;;;6.15;1.70;;;17.40;99.90;;;;;;5041956;28;20057;-86
2023/08/08 08:42:17;;;;;;;5.68;1.60;;;17.30;99.90;;;;;;5043531;28;20106;-86
2023/08/08 08:44:44;;;;;;;8.88;1.90;;;17.30;99.90;;;;;;5047288;28;20114;-85
2023/08/08 08:47:13;;;;;;;5.57;1.73;;;17.40;99.90;;;;;;5027591;28;20041;-84
2023/08/08 08:49:41;;;;;;;8.25;1.60;;;17.30;99.90;;;;;;5048248;28;20423;-85
2023/08/08 08:52:07;;;;;;;7.53;1.75;;;17.30;99.90;;;;;;5046310;28;20048;-85
2023/08/08 08:54:35;;;;;;;6.43;1.40;;;17.40;99.90;;;;;;5061512;28;20067;-86
2023/08/08 08:57:00;;;;;;;7.78;1.80;;;17.60;99.90;;;;;;5030919;28;20052;-84
2023/08/08 08:59:26;;;;;;;8.70;1.77;;;17.80;99.90;;;;;;5046964;28;20072;-85
2023/08/08 09:01:53;;;;;;;4.43;1.55;;;17.70;99.90;;;;;;5067773;28;20380;-85
2023/08/08 09:04:20;;;;;;;6.43;1.60;;;17.60;99.90;;;;;;5046717;28;20455;-85
2023/08/08 09:06:47;;;;;;;8.13;1.63;;;17.30;99.90;;;;;;5064439;28;20131;-85
2023/08/08 09:09:15;;;;;;;7.50;1.58;;;17.10;99.90;;;;;;5046192;28;20450;-84
2023/08/08 09:11:45;;;;;;;7.35;1.50;;;16.90;99.90;;;;;;5067149;28;20040;-86
2023/08/08 09:14:21;;;;;;;10.30;1.88;;;17.00;99.90;;;;;;5044677;28;20043;-84
2023/08/08 09:16:47;;;;;;;9.20;2.00;;;17.30;99.90;;;;;;5050077;28;20557;-84
2023/08/08 09:19:14;;;;;;;7.20;1.40;;;17.60;99.90;;;;;;5048693;28;20432;-85
2023/08/08 09:21:40;;;;;;;7.25;1.60;;;17.70;99.90;;;;;;5049654;28;20044;-85
2023/08/08 09:24:06;;;;;;;9.68;2.58;;;18.00;99.90;;;;;;5067812;28;20481;-85
2023/08/08 09:26:33;;;;;;;3.88;1.20;;;18.30;99.90;;;;;;5067324;28;20160;-85
2023/08/08 09:28:59;;;;;;;7.72;1.48;;;18.60;99.90;;;;;;5064182;28;20402;-85
2023/08/08 09:31:25;;;;;;;7.28;1.52;;;18.40;99.90;;;;;;5049997;28;20087;-85
2023/08/08 09:33:53;;;;;;;7.85;1.50;;;18.10;99.90;;;;;;5066923;28;20032;-84
2023/08/08 09:36:19;;;;;;;6.35;1.58;;;17.90;99.90;;;;;;5051016;28;20427;-83
2023/08/08 09:38:45;;;;;;;8.18;2.00;;;17.90;99.90;;;;;;5066650;28;20419;-85
2023/08/08 09:41:11;;;;;;;10.05;1.90;;;18.00;99.90;;;;;;5043765;28;20036;-78
2023/08/08 09:43:37;;;;;;;4.43;1.60;;;18.20;99.90;;;;;;5049051;28;20230;-73
2023/08/08 09:46:03;;;;;;;7.55;1.50;;;18.30;99.90;;;;;;5046267;28;20131;-77
2023/08/08 09:48:33;;;;;;;7.25;2.10;;;18.50;99.90;;;;;;5047820;28;20044;-77
2023/08/08 09:51:02;;;;;;;7.72;1.90;;;18.80;99.90;;;;;;5066383;28;20059;-77
2023/08/08 09:53:28;;;;;;;6.32;1.75;;;18.80;99.90;;;;;;5067592;28;20095;-77
2023/08/08 09:55:55;;;;;;;6.55;1.42;;;18.70;99.90;;;;;;5061505;28;20525;-77
2023/08/08 09:58:21;;;;;;;6.57;1.70;;;18.80;99.90;;;;;;5064228;28;20388;-83
2023/08/08 10:00:50;;;;;;;7.07;1.65;;;18.70;99.90;;;;;;5060065;28;20037;-77
2023/08/08 10:03:17;;;;;;;6.63;1.67;;;18.50;99.90;;;;;;5057896;28;20048;-76
2023/08/08 10:05:43;;;;;;;5.70;1.73;;;18.30;99.90;;;;;;5061017;28;20052;-78
2023/08/08 10:08:09;;;;;;;7.85;1.60;;;18.00;99.90;;;;;;5045157;28;20060;-77
2023/08/08 10:10:36;;;;;;;7.40;1.60;;;17.80;99.90;;;;;;5047373;28;20404;-78
2023/08/08 10:13:02;;;;;;;4.70;1.38;;;17.90;99.90;;;;;;5044120;28;20107;-79
2023/08/08 10:15:28;;;;;;;6.60;1.60;;;18.10;99.90;;;;;;5044081;28;20635;-79
2023/08/08 10:17:57;;;;;;;7.00;1.65;;;18.20;99.90;;;;;;5046811;28;20044;-80
2023/08/08 10:20:24;;;;;;;14.90;1.98;;;18.50;99.90;;;;;;5065727;28;20037;-78
2023/08/08 10:22:54;;;;;;;9.32;1.75;;;18.70;99.90;;;;;;5045537;28;20048;-81
2023/08/08 10:25:28;;;;;;;5.25;1.50;;;18.90;99.90;;;;;;5043853;28;20093;-80
2023/08/08 10:28:08;;;;;;;7.68;1.50;;;19.00;99.90;;;;;;5023678;28;20761;-78
2023/08/08 10:30:53;;;;;;;9.32;2.08;;;19.20;99.90;;;;;;5045983;28;20606;-79
2023/08/08 10:33:23;;;;;;;8.35;1.65;;;19.00;99.90;;;;;;5059634;28;20036;-77
2023/08/08 10:36:06;;;;;;;6.13;1.40;;;19.10;99.90;;;;;;5050171;28;20139;-78
2023/08/08 10:38:43;;;;;;;4.78;1.52;;;18.80;99.90;;;;;;5060504;28;20082;-77
2023/08/08 10:41:11;;;;;;;6.82;1.98;;;18.70;99.90;;;;;;5063632;28;20106;-76
2023/08/08 10:43:37;;;;;;;4.30;1.35;;;19.00;99.90;;;;;;5043457;28;20119;-78
2023/08/08 10:46:04;;;;;;;8.10;1.83;;;19.20;99.90;;;;;;5065062;28;20044;-77
2023/08/08 10:48:30;;;;;;;7.30;2.10;;;19.40;99.90;;;;;;5047414;28;20052;-79
2023/08/08 10:51:00;;;;;;;5.57;1.48;;;19.60;99.90;;;;;;5043551;28;21607;-79
2023/08/08 10:53:27;;;;;;;8.13;1.80;;;19.50;99.90;;;;;;5027360;28;20602;-77
2023/08/08 10:56:04;;;;;;;6.53;1.60;;;19.30;99.90;;;;;;5064154;28;20079;-76
2023/08/08 10:58:40;;;;;;;8.23;1.65;;;19.30;99.90;;;;;;5027411;28;20056;-76
2023/08/08 11:01:08;;;;;;;5.90;1.40;;;19.30;99.90;;;;;;5027370;28;20110;-77
2023/08/08 11:03:39;;;;;;;6.63;1.88;;;19.30;99.90;;;;;;5047566;28;20147;-77
2023/08/08 11:06:08;;;;;;;7.05;1.38;;;19.20;99.90;;;;;;5047854;28;20195;-77
2023/08/08 11:08:35;;;;;;;5.65;1.30;;;19.20;99.90;;;;;;5066857;28;20036;-78
2023/08/08 11:11:03;;;;;;;17.38;4.10;;;19.40;99.90;;;;;;5043724;28;21423;-75
2023/08/08 11:13:29;;;;;;;6.78;1.50;;;19.50;99.90;;;;;;5046187;28;20048;-76
2023/08/08 11:15:54;;;;;;;6.50;1.45;;;19.20;99.90;;;;;;5046875;28;20118;-76
2023/08/08 11:18:21;;;;;;;9.85;2.50;;;18.90;99.90;;;;;;5060718;28;20040;-74
2023/08/08 11:20:48;;;;;;;50.30;7.47;;;19.00;99.90;;;;;;5061055;28;20047;-75
2023/08/08 11:23:14;;;;;;;33.13;6.20;;;19.30;99.90;;;;;;5024781;28;20040;-77
2023/08/08 11:25:44;;;;;;;10.77;2.08;;;19.30;99.90;;;;;;5044194;28;20052;-76
2023/08/08 11:28:10;;;;;;;8.80;2.92;;;19.20;99.90;;;;;;5048888;28;20056;-76
2023/08/08 11:30:44;;;;;;;3.28;1.30;;;19.30;99.90;;;;;;5051220;28;20396;-74
2023/08/08 11:33:13;;;;;;;11.27;3.00;;;19.50;99.90;;;;;;5067575;28;20044;-75
2023/08/08 11:35:45;;;;;;;5.80;1.70;;;19.50;99.90;;;;;;5045770;28;20161;-75
2023/08/08 11:38:11;;;;;;;5.93;1.60;;;19.40;99.90;;;;;;5060188;28;20395;-75
2023/08/08 11:40:37;;;;;;;10.10;1.55;;;19.30;99.90;;;;;;5048152;28;20036;-75
2023/08/08 11:43:03;;;;;;;7.82;1.40;;;19.20;99.90;;;;;;5068902;28;20048;-74
2023/08/08 11:45:28;;;;;;;8.30;1.60;;;19.20;99.90;;;;;;5049013;28;20062;-75
2023/08/08 11:47:55;;;;;;;9.30;1.73;;;19.30;99.90;;;;;;5066544;28;20047;-75
2023/08/08 11:50:23;;;;;;;6.40;1.75;;;19.40;99.90;;;;;;5063443;28;20174;-75
2023/08/08 11:52:51;;;;;;;7.80;2.55;;;19.40;99.90;;;;;;5066996;28;20063;-74
2023/08/08 11:55:20;;;;;;;6.95;1.60;;;19.10;99.90;;;;;;5066634;28;20040;-74
2023/08/08 11:57:46;;;;;;;9.48;2.40;;;19.10;99.90;;;;;;5030703;28;20617;-75
2023/08/08 12:00:13;;;;;;;9.75;1.95;;;19.00;99.90;;;;;;5070111;28;20056;-75
2023/08/08 12:02:40;;;;;;;6.55;1.80;;;19.00;99.90;;;;;;5069071;28;20115;-75
2023/08/08 12:05:07;;;;;;;5.95;1.65;;;18.90;99.90;;;;;;5069856;28;20602;-74
2023/08/08 12:07:36;;;;;;;8.90;1.67;;;18.80;99.90;;;;;;5050250;28;20411;-73
2023/08/08 12:10:04;;;;;;;14.68;2.92;;;19.00;99.90;;;;;;5067272;28;20038;-74
2023/08/08 12:12:35;;;;;;;10.30;1.70;;;19.00;99.90;;;;;;5066231;28;20044;-74
2023/08/08 12:15:10;;;;;;;7.95;1.60;;;18.80;99.90;;;;;;5033113;28;20374;-76
2023/08/08 12:17:36;;;;;;;7.70;1.40;;;19.00;99.90;;;;;;5043536;28;20048;-75
2023/08/08 12:20:07;;;;;;;8.70;1.55;;;19.30;99.90;;;;;;5066995;28;20028;-75
2023/08/08 12:22:33;;;;;;;4.63;1.38;;;19.50;99.90;;;;;;5044502;28;20063;-74
2023/08/08 12:25:00;;;;;;;6.72;1.10;;;19.70;99.90;;;;;;5067437;28;20036;-74
2023/08/08 12:27:26;;;;;;;7.50;1.60;;;19.70;99.90;;;;;;5068328;28;20448;-75
2023/08/08 12:29:51;;;;;;;9.32;2.00;;;19.70;99.90;;;;;;5065864;28;20062;-76
2023/08/08 12:32:20;;;;;;;5.57;1.50;;;19.70;99.90;;;;;;5068023;28;20039;-77
2023/08/08 12:34:45;;;;;;;6.40;1.70;;;19.80;99.90;;;;;;5068740;28;20145;-74
2023/08/08 12:37:11;;;;;;;13.60;1.85;;;19.70;99.90;;;;;;5067535;28;20545;-75
2023/08/08 12:39:37;;;;;;;5.68;1.33;;;19.70;99.90;;;;;;5050162;28;20146;-76
2023/08/08 12:42:03;;;;;;;4.70;1.60;;;19.60;99.90;;;;;;5068944;28;20167;-75